createdAt,value
2018-03-28T00:01:36.704Z,32.53
2018-03-28T00:04:05.115Z,35.40
2018-03-28T00:06:32.886Z,35.23
2018-03-28T00:09:00.788Z,32.83
2018-03-28T00:11:28.776Z,32.63
2018-03-28T00:13:57.396Z,32.73
2018-03-28T00:18:58.264Z,32.43
2018-03-28T00:21:25.944Z,38.90
2018-03-28T00:23:53.691Z,36.93
2018-03-28T00:26:21.544Z,34.60
2018-03-28T00:28:49.482Z,38.93
2018-03-28T00:31:17.386Z,36.20
2018-03-28T00:33:45.027Z,36.17
2018-03-28T00:36:12.762Z,37.70
2018-03-28T00:38:40.510Z,35.53
2018-03-28T00:41:08.990Z,33.63
2018-03-28T00:43:36.762Z,38.67
2018-03-28T00:46:04.601Z,37.33
2018-03-28T00:48:32.446Z,40.27
2018-03-28T00:51:12.059Z,36.83
2018-03-28T00:53:39.902Z,37.83
2018-03-28T00:56:08.364Z,40.13
2018-03-28T00:58:35.924Z,35.53
2018-03-28T01:01:03.704Z,38.80
2018-03-28T01:03:32.180Z,39.23
2018-03-28T01:06:00.776Z,39.23
2018-03-28T01:08:28.726Z,39.63
2018-03-28T01:10:56.556Z,44.00
2018-03-28T01:13:24.258Z,40.37
2018-03-28T01:15:52.844Z,40.77
2018-03-28T01:18:21.434Z,40.83
2018-03-28T01:20:49.216Z,44.73
2018-03-28T01:23:17.078Z,43.97
2018-03-28T01:25:44.906Z,40.63
2018-03-28T01:28:13.089Z,45.80
2018-03-28T01:30:40.761Z,46.30
2018-03-28T01:33:08.498Z,42.53
2018-03-28T01:35:36.196Z,47.13
2018-03-28T01:38:04.017Z,42.03
2018-03-28T01:40:31.675Z,46.80
2018-03-28T01:42:59.420Z,43.27
2018-03-28T01:45:27.074Z,44.50
2018-03-28T01:47:54.795Z,49.83
2018-03-28T01:50:22.424Z,48.20
2018-03-28T01:52:50.109Z,44.30
2018-03-28T01:55:17.739Z,40.30
2018-03-28T01:57:45.454Z,48.00
2018-03-28T02:00:13.022Z,43.77
2018-03-28T02:02:40.802Z,47.67
2018-03-28T02:05:09.338Z,44.03
2018-03-28T02:07:36.975Z,47.20
2018-03-28T02:10:04.580Z,45.83
2018-03-28T02:12:32.235Z,44.57
2018-03-28T02:14:59.868Z,49.93
2018-03-28T02:17:27.651Z,48.20
2018-03-28T02:19:55.579Z,46.73
2018-03-28T02:22:23.258Z,48.30
2018-03-28T02:24:50.935Z,47.30
2018-03-28T02:27:18.623Z,48.53
2018-03-28T02:29:46.244Z,49.13
2018-03-28T02:32:13.804Z,41.27
2018-03-28T02:34:42.176Z,45.10
2018-03-28T02:37:09.838Z,44.17
2018-03-28T02:39:37.582Z,45.93
2018-03-28T02:42:05.191Z,42.83
2018-03-28T02:44:32.900Z,43.40
2018-03-28T02:47:01.311Z,44.80
2018-03-28T02:49:28.957Z,48.20
2018-03-28T02:51:56.592Z,48.33
2018-03-28T02:54:24.360Z,46.63
2018-03-28T02:56:52.066Z,44.73
2018-03-28T02:59:19.646Z,45.67
2018-03-28T03:01:47.367Z,47.03
2018-03-28T03:04:15.044Z,47.23
2018-03-28T03:06:42.729Z,48.43
2018-03-28T03:09:10.438Z,45.03
2018-03-28T03:11:38.109Z,47.50
2018-03-28T03:14:06.541Z,54.57
2018-03-28T03:16:34.171Z,43.70
2018-03-28T03:19:01.849Z,48.53
2018-03-28T03:21:29.619Z,49.53
2018-03-28T03:23:57.236Z,42.90
2018-03-28T03:26:24.942Z,47.97
2018-03-28T03:28:52.577Z,43.40
2018-03-28T03:31:20.342Z,43.10
2018-03-28T03:33:48.972Z,42.33
2018-03-28T03:36:16.694Z,50.60
2018-03-28T03:38:44.346Z,40.50
2018-03-28T03:41:12.014Z,52.17
2018-03-28T03:43:39.662Z,47.47
2018-03-28T03:46:07.329Z,40.67
2018-03-28T03:48:35.685Z,39.73
2018-03-28T03:51:03.298Z,41.27
2018-03-28T03:53:30.919Z,42.90
2018-03-28T03:55:58.583Z,43.87
2018-03-28T03:58:26.247Z,41.03
2018-03-28T04:00:54.728Z,37.53
2018-03-28T04:03:22.452Z,39.97
2018-03-28T04:05:50.081Z,40.03
2018-03-28T04:08:17.799Z,42.40
2018-03-28T04:10:45.378Z,43.33
2018-03-28T04:13:13.136Z,46.27
2018-03-28T04:15:40.735Z,40.80
2018-03-28T04:18:08.426Z,42.30
2018-03-28T04:20:36.169Z,42.93
2018-03-28T04:23:03.991Z,43.10
2018-03-28T04:25:31.647Z,51.87
2018-03-28T04:27:59.403Z,42.90
2018-03-28T04:30:27.117Z,43.27
2018-03-28T04:32:54.820Z,51.73
2018-03-28T04:35:22.489Z,56.60
2018-03-28T04:37:50.312Z,61.07
2018-03-28T04:40:17.994Z,58.40
2018-03-28T04:42:45.905Z,43.73
2018-03-28T04:45:13.831Z,49.03
2018-03-28T04:47:41.658Z,42.57
2018-03-28T04:50:10.569Z,43.33
2018-03-28T04:52:38.389Z,45.23
2018-03-28T04:55:06.146Z,53.47
2018-03-28T04:57:33.914Z,47.27
2018-03-28T05:00:02.776Z,50.20
2018-03-28T05:02:30.488Z,46.73
2018-03-28T05:04:58.479Z,44.37
2018-03-28T05:07:26.237Z,42.10
2018-03-28T05:09:54.097Z,46.17
2018-03-28T05:12:21.784Z,40.80
2018-03-28T05:14:49.573Z,47.80
2018-03-28T05:17:17.611Z,47.90
2018-03-28T05:19:45.610Z,44.23
2018-03-28T05:22:13.646Z,43.33
2018-03-28T05:24:41.603Z,44.43
2018-03-28T05:27:09.804Z,53.00
2018-03-28T05:29:37.617Z,43.17
2018-03-28T05:32:05.993Z,46.93
2018-03-28T05:34:34.167Z,42.30
2018-03-28T05:37:01.949Z,43.20
2018-03-28T05:39:31.431Z,42.70
2018-03-28T05:41:59.381Z,45.90
2018-03-28T05:44:28.569Z,50.20
2018-03-28T05:46:56.429Z,42.77
2018-03-28T05:49:25.417Z,45.83
2018-03-28T05:51:53.495Z,43.60
2018-03-28T05:54:21.444Z,45.93
2018-03-28T05:56:49.447Z,44.87
2018-03-28T05:59:17.323Z,45.40
2018-03-28T06:01:45.344Z,38.70
2018-03-28T06:04:13.200Z,41.57
2018-03-28T06:06:41.941Z,40.77
2018-03-28T06:09:09.878Z,41.27
2018-03-28T06:11:37.876Z,41.33
2018-03-28T06:14:05.812Z,48.20
2018-03-28T06:16:34.112Z,38.80
2018-03-28T06:19:01.954Z,33.97
2018-03-28T06:21:30.031Z,40.07
2018-03-28T06:23:57.940Z,45.87
2018-03-28T06:26:25.939Z,34.43
2018-03-28T06:28:53.977Z,36.53
2018-03-28T06:31:22.745Z,34.30
2018-03-28T06:33:50.652Z,37.07
2018-03-28T06:36:18.619Z,36.97
2018-03-28T06:38:46.473Z,34.60
2018-03-28T06:41:15.142Z,35.60
2018-03-28T06:43:43.518Z,38.33
2018-03-28T06:46:13.482Z,37.10
2018-03-28T06:48:42.761Z,36.90
2018-03-28T06:51:11.989Z,40.27
2018-03-28T06:53:42.014Z,41.77
2018-03-28T06:56:10.043Z,35.50
2018-03-28T06:58:42.023Z,46.47
2018-03-28T07:01:12.086Z,36.63
2018-03-28T07:03:41.843Z,36.63
2018-03-28T07:06:09.863Z,40.83
2018-03-28T07:08:38.691Z,43.57
2018-03-28T07:11:12.015Z,39.93
2018-03-28T07:13:40.782Z,38.70
2018-03-28T07:16:08.935Z,37.10
2018-03-28T07:18:36.997Z,36.63
2018-03-28T07:21:06.297Z,41.00
2018-03-28T07:23:40.371Z,39.17
2018-03-28T07:26:08.655Z,40.03
2018-03-28T07:28:42.544Z,41.20
2018-03-28T07:31:14.507Z,42.13
2018-03-28T07:33:44.446Z,40.03
2018-03-28T07:36:13.711Z,37.17
2018-03-28T07:38:41.843Z,35.70
2018-03-28T07:41:09.726Z,37.50
2018-03-28T07:43:38.611Z,37.10
2018-03-28T07:46:06.591Z,37.53
2018-03-28T07:48:34.591Z,36.03
2018-03-28T07:51:03.168Z,34.20
2018-03-28T07:53:31.443Z,36.87
2018-03-28T07:56:00.441Z,37.60
2018-03-28T07:58:29.912Z,34.73
2018-03-28T08:00:57.643Z,32.87
2018-03-28T08:03:25.598Z,37.40
2018-03-28T08:05:53.482Z,34.27
2018-03-28T08:08:22.178Z,35.30
2018-03-28T08:10:51.433Z,38.60
2018-03-28T08:13:19.553Z,33.90
2018-03-28T08:15:47.366Z,34.57
2018-03-28T08:18:15.013Z,37.90
2018-03-28T08:20:43.249Z,42.20
2018-03-28T08:23:11.646Z,34.33
2018-03-28T08:25:39.954Z,31.93
2018-03-28T08:28:07.904Z,33.40
2018-03-28T08:30:39.707Z,34.30
2018-03-28T08:33:07.475Z,32.83
2018-03-28T08:35:36.115Z,32.50
2018-03-28T08:38:03.963Z,35.37
2018-03-28T08:40:33.203Z,34.80
2018-03-28T08:43:01.037Z,32.33
2018-03-28T08:45:29.307Z,33.47
2018-03-28T08:47:57.986Z,34.23
2018-03-28T08:50:25.727Z,30.67
2018-03-28T08:52:53.707Z,32.30
2018-03-28T08:55:21.549Z,31.83
2018-03-28T08:57:49.519Z,30.90
2018-03-28T09:00:25.666Z,32.60
2018-03-28T09:02:53.705Z,30.37
2018-03-28T09:05:21.860Z,30.40
2018-03-28T09:07:49.872Z,34.17
2018-03-28T09:10:18.615Z,29.53
2018-03-28T09:12:46.663Z,30.27
2018-03-28T09:15:14.593Z,31.87
2018-03-28T09:17:42.736Z,29.63
2018-03-28T09:20:10.725Z,32.37
2018-03-28T09:22:38.635Z,31.60
2018-03-28T09:25:06.637Z,29.97
2018-03-28T09:27:34.615Z,29.67
2018-03-28T09:30:02.595Z,32.90
2018-03-28T09:32:30.667Z,30.27
2018-03-28T09:34:58.532Z,30.90
2018-03-28T09:37:26.558Z,28.27
2018-03-28T09:39:54.277Z,30.57
2018-03-28T09:42:22.396Z,32.20
2018-03-28T09:44:50.503Z,29.30
2018-03-28T09:47:18.531Z,30.70
2018-03-28T09:49:49.097Z,32.37
2018-03-28T09:52:17.165Z,31.37
2018-03-28T09:54:45.167Z,33.70
2018-03-28T09:57:13.050Z,29.20
2018-03-28T09:59:40.977Z,28.83
2018-03-28T10:02:10.691Z,28.13
2018-03-28T10:04:44.055Z,28.23
2018-03-28T10:07:11.952Z,28.50
2018-03-28T10:09:39.788Z,29.00
2018-03-28T10:12:07.706Z,27.10
2018-03-28T10:14:35.464Z,27.73
2018-03-28T10:17:03.304Z,28.53
2018-03-28T10:19:37.380Z,26.87
2018-03-28T10:22:05.629Z,26.07
2018-03-28T10:24:33.714Z,29.40
2018-03-28T10:27:01.637Z,27.73
2018-03-28T10:29:30.773Z,26.37
2018-03-28T10:31:59.102Z,26.77
2018-03-28T10:34:28.939Z,27.40
2018-03-28T10:36:56.943Z,27.63
2018-03-28T10:39:26.172Z,28.73
2018-03-28T10:41:56.887Z,30.53
2018-03-28T10:44:24.823Z,27.37
2018-03-28T10:46:53.665Z,29.63
2018-03-28T10:49:21.693Z,29.20
2018-03-28T10:51:49.626Z,27.90
2018-03-28T10:54:18.403Z,29.63
2018-03-28T10:56:47.223Z,29.10
2018-03-28T10:59:15.431Z,29.33
2018-03-28T11:01:43.339Z,27.33
2018-03-28T11:04:11.247Z,24.77
2018-03-28T11:06:39.156Z,27.53
2018-03-28T11:09:07.082Z,26.03
2018-03-28T11:11:35.143Z,26.10
2018-03-28T11:14:03.133Z,23.60
2018-03-28T11:16:32.485Z,27.17
2018-03-28T11:19:00.438Z,27.50
2018-03-28T11:21:28.737Z,25.60
2018-03-28T11:23:56.689Z,22.10
2018-03-28T11:26:24.793Z,22.90
2018-03-28T11:28:52.808Z,26.00
2018-03-28T11:31:20.872Z,21.30
2018-03-28T11:33:49.531Z,23.73
2018-03-28T11:36:18.274Z,23.53
2018-03-28T11:38:47.149Z,23.47
2018-03-28T11:41:15.812Z,25.63
2018-03-28T11:43:44.619Z,26.23
2018-03-28T11:46:12.530Z,27.30
2018-03-28T11:48:40.560Z,20.20
2018-03-28T11:51:08.561Z,24.47
2018-03-28T11:53:36.643Z,24.60
2018-03-28T11:56:04.559Z,21.63
2018-03-28T11:58:32.542Z,20.43
2018-03-28T12:01:01.219Z,17.57
2018-03-28T12:03:29.854Z,18.57
2018-03-28T12:05:57.749Z,18.10
2018-03-28T12:08:25.834Z,19.80
2018-03-28T12:10:53.779Z,16.23
2018-03-28T12:13:21.850Z,14.50
2018-03-28T12:15:49.850Z,13.37
2018-03-28T12:18:17.879Z,15.70
2018-03-28T12:20:45.531Z,15.90
2018-03-28T12:23:13.397Z,10.80
2018-03-28T12:25:41.309Z,15.40
2018-03-28T12:28:09.266Z,12.90
2018-03-28T12:30:37.515Z,15.20
2018-03-28T12:33:05.385Z,12.33
2018-03-28T12:35:33.444Z,15.77
2018-03-28T12:38:01.374Z,9.47
2018-03-28T12:40:29.239Z,9.90
2018-03-28T12:42:57.192Z,13.63
2018-03-28T12:45:25.161Z,9.03
2018-03-28T12:47:53.026Z,11.57
2018-03-28T12:50:20.989Z,9.00
2018-03-28T12:52:48.959Z,5.30
2018-03-28T12:55:16.916Z,4.70
2018-03-28T12:57:44.756Z,3.83
2018-03-28T13:00:12.605Z,5.10
2018-03-28T13:02:40.430Z,4.53
2018-03-28T13:05:10.612Z,4.70
2018-03-28T13:07:38.466Z,20.73
2018-03-28T13:10:06.519Z,17.57
2018-03-28T13:12:34.433Z,11.63
2018-03-28T13:15:03.311Z,7.27
2018-03-28T13:17:31.125Z,9.33
2018-03-28T13:19:59.647Z,10.47
2018-03-28T13:22:27.452Z,9.50
2018-03-28T13:24:55.344Z,10.67
2018-03-28T13:27:23.960Z,11.57
2018-03-28T13:29:51.643Z,12.80
2018-03-28T13:32:19.438Z,9.37
2018-03-28T13:34:48.082Z,9.30
2018-03-28T13:37:15.888Z,11.27
2018-03-28T13:39:44.188Z,9.13
2018-03-28T13:42:12.021Z,10.70
2018-03-28T13:44:39.812Z,10.60
2018-03-28T13:47:07.623Z,17.80
2018-03-28T13:49:35.418Z,19.50
2018-03-28T13:52:04.662Z,14.00
2018-03-28T13:54:33.338Z,29.50
2018-03-28T13:57:02.055Z,45.73
2018-03-28T13:59:30.000Z,20.83
2018-03-28T14:01:57.969Z,37.00
2018-03-28T14:04:25.840Z,17.87
2018-03-28T14:06:53.793Z,23.07
2018-03-28T14:09:21.607Z,15.53
2018-03-28T14:11:49.477Z,28.23
2018-03-28T14:14:18.067Z,16.53
2018-03-28T14:16:45.944Z,41.60
2018-03-28T14:19:15.168Z,22.47
2018-03-28T14:21:44.451Z,19.17
2018-03-28T14:24:12.512Z,24.07
2018-03-28T14:26:44.944Z,22.33
2018-03-28T14:29:16.549Z,23.50
2018-03-28T14:31:44.872Z,19.50
2018-03-28T14:34:12.677Z,23.43
2018-03-28T14:36:40.602Z,23.50
2018-03-28T14:39:08.963Z,27.07
2018-03-28T14:41:38.563Z,23.27
2018-03-28T14:44:06.745Z,24.53
2018-03-28T14:46:35.428Z,30.40
2018-03-28T14:49:03.157Z,24.43
2018-03-28T14:51:39.407Z,25.17
2018-03-28T14:54:07.503Z,27.13
2018-03-28T14:56:36.830Z,25.77
2018-03-28T14:59:05.685Z,25.50
2018-03-28T15:01:35.855Z,26.60
2018-03-28T15:04:03.979Z,31.03
2018-03-28T15:06:31.887Z,27.93
2018-03-28T15:08:59.780Z,26.87
2018-03-28T15:11:27.778Z,28.97
2018-03-28T15:13:55.745Z,26.20
2018-03-28T15:16:24.368Z,27.00
2018-03-28T15:18:52.999Z,26.60
2018-03-28T15:21:20.921Z,24.47
2018-03-28T15:23:50.916Z,28.07
2018-03-28T15:26:20.937Z,23.37
2018-03-28T15:28:49.874Z,24.70
2018-03-28T15:31:19.045Z,26.33
2018-03-28T15:33:46.998Z,23.53
2018-03-28T15:36:14.634Z,26.37
2018-03-28T15:38:42.589Z,24.23
2018-03-28T15:41:11.253Z,24.47
2018-03-28T15:43:39.215Z,26.17
2018-03-28T15:46:07.921Z,21.67
2018-03-28T15:48:36.667Z,25.47
2018-03-28T15:51:07.217Z,25.33
2018-03-28T15:53:36.725Z,27.13
2018-03-28T15:56:04.744Z,21.77
2018-03-28T15:58:32.752Z,26.63
2018-03-28T16:01:01.525Z,25.27
2018-03-28T16:03:30.485Z,26.10
2018-03-28T16:05:58.557Z,23.13
2018-03-28T16:08:26.390Z,22.50
2018-03-28T16:10:54.955Z,23.13
2018-03-28T16:13:23.188Z,21.57
2018-03-28T16:15:55.254Z,20.23
2018-03-28T16:18:25.501Z,21.00
2018-03-28T16:21:03.800Z,20.53
2018-03-28T16:23:31.808Z,17.27
2018-03-28T16:25:59.772Z,17.10
2018-03-28T16:28:28.570Z,19.40
2018-03-28T16:30:56.566Z,20.43
2018-03-28T16:33:24.568Z,19.50
2018-03-28T16:35:52.437Z,22.13
2018-03-28T16:38:23.071Z,28.13
2018-03-28T16:40:51.189Z,28.00
2018-03-28T16:43:20.901Z,31.23
2018-03-28T16:45:48.694Z,29.23
2018-03-28T16:48:17.034Z,33.77
2018-03-28T16:50:45.772Z,32.80
2018-03-28T16:53:13.485Z,32.87
2018-03-28T16:55:41.797Z,29.10
2018-03-28T16:58:09.826Z,30.10
2018-03-28T17:00:37.901Z,33.23
2018-03-28T17:03:06.503Z,29.60
2018-03-28T17:05:34.381Z,31.47
2018-03-28T17:08:03.122Z,28.37
2018-03-28T17:10:30.938Z,27.77
2018-03-28T17:12:58.966Z,26.07
2018-03-28T17:15:27.582Z,29.60
2018-03-28T17:17:55.578Z,25.53
2018-03-28T17:20:23.553Z,26.43
2018-03-28T17:22:53.096Z,26.97
2018-03-28T17:25:21.732Z,24.43
2018-03-28T17:27:49.818Z,26.40
2018-03-28T17:30:17.972Z,29.03
2018-03-28T17:32:46.350Z,29.17
2018-03-28T17:35:14.194Z,27.17
2018-03-28T17:37:43.373Z,28.87
2018-03-28T17:40:12.148Z,27.37
2018-03-28T17:42:40.668Z,26.90
2018-03-28T17:45:08.433Z,26.70
2018-03-28T17:47:36.184Z,30.83
2018-03-28T17:50:04.016Z,28.67
2018-03-28T17:52:31.867Z,26.33
2018-03-28T17:54:59.625Z,24.00
2018-03-28T17:57:27.284Z,24.10
2018-03-28T17:59:54.942Z,29.03
2018-03-28T18:02:22.593Z,25.17
2018-03-28T18:04:50.218Z,29.00
2018-03-28T18:07:17.821Z,28.57
2018-03-28T18:09:45.392Z,28.97
2018-03-28T18:12:13.002Z,27.80
2018-03-28T18:14:40.772Z,31.70
2018-03-28T18:17:08.413Z,25.90
2018-03-28T18:19:36.010Z,26.30
2018-03-28T18:22:04.435Z,27.13
2018-03-28T18:24:32.179Z,26.70
2018-03-28T18:27:00.019Z,26.33
2018-03-28T18:29:28.104Z,28.30
2018-03-28T18:31:55.957Z,25.07
2018-03-28T18:34:23.778Z,25.93
2018-03-28T18:36:51.674Z,24.43
2018-03-28T18:39:19.547Z,25.73
2018-03-28T18:41:47.354Z,23.03
2018-03-28T18:44:15.230Z,22.23
2018-03-28T18:46:43.122Z,23.97
2018-03-28T18:49:12.373Z,25.47
2018-03-28T18:51:40.128Z,20.37
2018-03-28T18:54:07.858Z,21.57
2018-03-28T18:56:36.312Z,21.57
2018-03-28T18:59:04.412Z,25.77
2018-03-28T19:01:32.994Z,22.30
2018-03-28T19:04:01.423Z,24.70
2018-03-28T19:06:29.176Z,18.57
2018-03-28T19:08:56.917Z,21.57
2018-03-28T19:11:26.184Z,22.47
2018-03-28T19:13:54.056Z,25.27
2018-03-28T19:16:21.936Z,21.70
2018-03-28T19:18:50.462Z,18.80
2018-03-28T19:21:18.304Z,19.67
2018-03-28T19:23:45.999Z,24.47
2018-03-28T19:26:13.856Z,30.43
2018-03-28T19:28:41.807Z,24.93
2018-03-28T19:31:09.695Z,29.17
2018-03-28T19:33:38.949Z,28.10
2018-03-28T19:36:06.987Z,24.27
2018-03-28T19:38:35.446Z,27.27
2018-03-28T19:41:03.378Z,29.30
2018-03-28T19:43:31.872Z,60.07
2018-03-28T19:46:00.318Z,108.67
2018-03-28T19:48:28.888Z,58.40
2018-03-28T19:50:58.146Z,51.63
2018-03-28T19:53:26.036Z,42.20
2018-03-28T19:55:53.833Z,30.63
2018-03-28T19:58:21.811Z,30.60
2018-03-28T20:00:49.638Z,29.70
2018-03-28T20:03:17.550Z,36.63
2018-03-28T20:05:45.301Z,36.80
2018-03-28T20:08:14.348Z,39.97
2018-03-28T20:10:42.297Z,38.30
2018-03-28T20:13:10.282Z,35.50
2018-03-28T20:15:38.027Z,29.70
2018-03-28T20:18:06.356Z,33.50
2018-03-28T20:20:34.130Z,31.13
2018-03-28T20:23:02.966Z,30.33
2018-03-28T20:25:30.815Z,39.57
2018-03-28T20:28:03.798Z,31.60
2018-03-28T20:30:32.233Z,46.60
2018-03-28T20:32:59.982Z,65.87
2018-03-28T20:35:29.317Z,56.07
2018-03-28T20:37:57.126Z,41.60
2018-03-28T20:40:25.037Z,36.60
2018-03-28T20:42:52.962Z,33.73
2018-03-28T20:45:20.574Z,29.90
2018-03-28T20:47:48.372Z,36.77
2018-03-28T20:50:16.192Z,31.03
2018-03-28T20:52:44.514Z,30.97
2018-03-28T20:55:13.114Z,31.00
2018-03-28T20:57:47.668Z,35.50
2018-03-28T21:00:16.631Z,54.43
2018-03-28T21:02:44.470Z,40.80
2018-03-28T21:05:13.984Z,33.20
2018-03-28T21:07:45.061Z,34.07
2018-03-28T21:10:14.108Z,34.90
2018-03-28T21:12:45.900Z,43.13
2018-03-28T21:15:13.890Z,34.90
2018-03-28T21:17:42.012Z,35.27
2018-03-28T21:20:09.950Z,32.27
2018-03-28T21:22:38.766Z,36.20
2018-03-28T21:25:07.686Z,34.27
2018-03-28T21:27:35.889Z,31.93
2018-03-28T21:30:04.730Z,34.50
2018-03-28T21:32:32.788Z,27.90
2018-03-28T21:35:00.695Z,32.57
2018-03-28T21:37:29.274Z,31.17
2018-03-28T21:39:57.718Z,32.77
2018-03-28T21:42:25.378Z,34.53
2018-03-28T21:44:53.286Z,36.40
2018-03-28T21:47:20.939Z,33.93
2018-03-28T21:49:56.044Z,34.77
2018-03-28T21:52:23.831Z,33.33
2018-03-28T21:54:51.730Z,39.63
2018-03-28T21:57:19.625Z,32.00
2018-03-28T21:59:48.396Z,33.53
2018-03-28T22:02:16.990Z,34.70
2018-03-28T22:04:44.760Z,32.90
2018-03-28T22:07:13.279Z,36.57
2018-03-28T22:09:41.262Z,34.13
2018-03-28T22:12:09.854Z,39.07
2018-03-28T22:14:37.492Z,39.17
2018-03-28T22:17:05.838Z,38.83
2018-03-28T22:19:33.683Z,32.77
2018-03-28T22:22:01.638Z,38.30
2018-03-28T22:24:30.514Z,34.50
2018-03-28T22:26:58.547Z,39.13
2018-03-28T22:29:26.373Z,35.77
2018-03-28T22:31:54.755Z,38.53
2018-03-28T22:34:24.173Z,37.60
2018-03-28T22:37:02.040Z,35.17
2018-03-28T22:39:35.364Z,35.50
2018-03-28T22:42:03.463Z,38.70
2018-03-28T22:44:43.980Z,36.70
2018-03-28T22:47:12.103Z,36.73
2018-03-28T22:49:39.934Z,36.67
2018-03-28T22:52:08.731Z,39.80
2018-03-28T22:54:37.454Z,35.67
2018-03-28T22:57:07.535Z,38.00
2018-03-28T22:59:35.784Z,39.77
2018-03-28T23:02:03.784Z,37.40
2018-03-28T23:04:32.382Z,34.63
2018-03-28T23:07:00.564Z,41.60
2018-03-28T23:09:30.834Z,37.63
2018-03-28T23:11:59.646Z,38.17
2018-03-28T23:14:27.396Z,38.73
2018-03-28T23:16:56.109Z,40.27
2018-03-28T23:19:24.034Z,41.47
2018-03-28T23:21:53.079Z,39.23
2018-03-28T23:24:22.294Z,40.07
2018-03-28T23:26:50.376Z,39.17
2018-03-28T23:29:19.371Z,38.50
2018-03-28T23:31:47.316Z,46.67
2018-03-28T23:34:15.148Z,43.67
2018-03-28T23:36:43.617Z,40.43
2018-03-28T23:39:15.257Z,40.67
2018-03-28T23:41:42.987Z,44.23
2018-03-28T23:44:11.753Z,39.83
2018-03-28T23:46:39.804Z,39.07
2018-03-28T23:49:11.540Z,41.70
2018-03-28T23:51:41.253Z,38.57
2018-03-28T23:54:09.448Z,42.40
2018-03-28T23:56:37.462Z,42.63
2018-03-28T23:59:05.322Z,41.03
